sensor_id;sensor_type;location;lat;lon;timestamp;pressure;altitude;pressure_sealevel;temperature;humidity
74542;BME280;63015;45.378;20.360;2023-02-25T00:01:53;99572.25;;;7.85;69.53
74542;BME280;63015;45.378;20.360;2023-02-25T00:03:55;99570.53;;;7.87;69.32
74542;BME280;63015;45.378;20.360;2023-02-25T00:05:56;99565.31;;;7.84;69.51
74542;BME280;63015;45.378;20.360;2023-02-25T00:07:57;99575.69;;;7.84;69.57
74542;BME280;63015;45.378;20.360;2023-02-25T00:09:57;99574.00;;;7.85;69.58
74542;BME280;63015;45.378;20.360;2023-02-25T00:11:58;99563.63;;;7.83;69.63
74542;BME280;63015;45.378;20.360;2023-02-25T00:13:59;99564.47;;;7.85;69.62
74542;BME280;63015;45.378;20.360;2023-02-25T00:16:03;99562.72;;;7.89;69.40
74542;BME280;63015;45.378;20.360;2023-02-25T00:18:04;99562.75;;;7.92;69.29
74542;BME280;63015;45.378;20.360;2023-02-25T00:20:07;99558.38;;;7.94;69.50
74542;BME280;63015;45.378;20.360;2023-02-25T00:22:09;99561.81;;;8.01;69.23
74542;BME280;63015;45.378;20.360;2023-02-25T00:24:09;99567.03;;;8.02;69.40
74542;BME280;63015;45.378;20.360;2023-02-25T00:26:11;99560.94;;;8.08;69.30
74542;BME280;63015;45.378;20.360;2023-02-25T00:28:12;99557.47;;;8.11;69.16
74542;BME280;63015;45.378;20.360;2023-02-25T00:30:14;99555.72;;;8.13;69.20
74542;BME280;63015;45.378;20.360;2023-02-25T00:32:14;99553.94;;;8.16;69.16
74542;BME280;63015;45.378;20.360;2023-02-25T00:34:17;99550.47;;;8.19;69.07
74542;BME280;63015;45.378;20.360;2023-02-25T00:36:22;99551.34;;;8.22;69.16
74542;BME280;63015;45.378;20.360;2023-02-25T00:38:23;99540.97;;;8.21;69.53
74542;BME280;63015;45.378;20.360;2023-02-25T00:40:24;99542.66;;;8.25;69.34
74542;BME280;63015;45.378;20.360;2023-02-25T00:42:24;99534.00;;;8.31;69.06
74542;BME280;63015;45.378;20.360;2023-02-25T00:44:25;99537.44;;;8.31;69.21
74542;BME280;63015;45.378;20.360;2023-02-25T00:46:27;99530.50;;;8.35;69.05
74542;BME280;63015;45.378;20.360;2023-02-25T00:48:28;99518.34;;;8.37;69.04
74542;BME280;63015;45.378;20.360;2023-02-25T00:50:29;99524.38;;;8.42;68.81
74542;BME280;63015;45.378;20.360;2023-02-25T00:52:35;99510.56;;;8.46;68.85
74542;BME280;63015;45.378;20.360;2023-02-25T00:54:36;99516.63;;;8.47;68.87
74542;BME280;63015;45.378;20.360;2023-02-25T00:56:38;99507.91;;;8.51;68.60
74542;BME280;63015;45.378;20.360;2023-02-25T00:58:39;99513.13;;;8.49;68.70
74542;BME280;63015;45.378;20.360;2023-02-25T01:00:39;99506.22;;;8.51;68.65
74542;BME280;63015;45.378;20.360;2023-02-25T01:02:44;99505.34;;;8.48;68.96
74542;BME280;63015;45.378;20.360;2023-02-25T01:04:44;99491.47;;;8.53;68.85
74542;BME280;63015;45.378;20.360;2023-02-25T01:06:45;99489.75;;;8.54;68.64
74542;BME280;63015;45.378;20.360;2023-02-25T01:08:46;99482.78;;;8.56;68.50
74542;BME280;63015;45.378;20.360;2023-02-25T01:10:46;99477.53;;;8.64;68.19
74542;BME280;63015;45.378;20.360;2023-02-25T01:12:47;99481.00;;;8.64;68.53
74542;BME280;63015;45.378;20.360;2023-02-25T01:14:49;99472.31;;;8.65;68.03
74542;BME280;63015;45.378;20.360;2023-02-25T01:16:50;99471.47;;;8.65;68.39
74542;BME280;63015;45.378;20.360;2023-02-25T01:18:53;99464.53;;;8.65;68.11
74542;BME280;63015;45.378;20.360;2023-02-25T01:20:55;99477.50;;;8.68;68.40
74542;BME280;63015;45.378;20.360;2023-02-25T01:22:56;99468.81;;;8.68;68.31
74542;BME280;63015;45.378;20.360;2023-02-25T01:24:56;99463.66;;;8.66;68.59
74542;BME280;63015;45.378;20.360;2023-02-25T01:27:00;99465.41;;;8.66;68.56
74542;BME280;63015;45.378;20.360;2023-02-25T01:29:01;99465.41;;;8.64;68.74
74542;BME280;63015;45.378;20.360;2023-02-25T01:31:04;99457.63;;;8.64;68.80
74542;BME280;63015;45.378;20.360;2023-02-25T01:33:07;99456.72;;;8.65;68.62
74542;BME280;63015;45.378;20.360;2023-02-25T01:35:08;99456.75;;;8.67;68.67
74542;BME280;63015;45.378;20.360;2023-02-25T01:37:08;99455.81;;;8.72;68.48
74542;BME280;63015;45.378;20.360;2023-02-25T01:39:13;99450.59;;;8.74;68.45
74542;BME280;63015;45.378;20.360;2023-02-25T01:41:14;99456.66;;;8.76;68.19
74542;BME280;63015;45.378;20.360;2023-02-25T01:43:15;99453.19;;;8.77;68.26
74542;BME280;63015;45.378;20.360;2023-02-25T01:47:19;99452.28;;;8.78;68.30
74542;BME280;63015;45.378;20.360;2023-02-25T01:51:23;99449.66;;;8.83;68.13
74542;BME280;63015;45.378;20.360;2023-02-25T01:53:36;99449.66;;;8.83;68.08
74542;BME280;63015;45.378;20.360;2023-02-25T01:55:39;99443.56;;;8.85;68.02
74542;BME280;63015;45.378;20.360;2023-02-25T01:57:42;99439.25;;;8.87;67.78
74542;BME280;63015;45.378;20.360;2023-02-25T01:59:43;99436.66;;;8.84;67.92
74542;BME280;63015;45.378;20.360;2023-02-25T02:01:45;99434.88;;;8.88;67.78
74542;BME280;63015;45.378;20.360;2023-02-25T02:03:47;99440.03;;;8.91;67.74
74542;BME280;63015;45.378;20.360;2023-02-25T02:06:10;99427.13;;;8.85;67.95
74542;BME280;63015;45.378;20.360;2023-02-25T02:08:13;99427.97;;;8.87;67.69
74542;BME280;63015;45.378;20.360;2023-02-25T02:10:14;99427.94;;;8.90;67.64
74542;BME280;63015;45.378;20.360;2023-02-25T02:12:15;99427.06;;;8.89;67.52
74542;BME280;63015;45.378;20.360;2023-02-25T02:14:32;99422.81;;;8.84;67.70
74542;BME280;63015;45.378;20.360;2023-02-25T02:19:20;99414.19;;;8.80;67.90
74542;BME280;63015;45.378;20.360;2023-02-25T02:21:49;99408.13;;;8.78;67.88
74542;BME280;63015;45.378;20.360;2023-02-25T02:33:39;99376.22;;;8.67;68.11
74542;BME280;63015;45.378;20.360;2023-02-25T02:36:00;99377.09;;;8.66;68.36
74542;BME280;63015;45.378;20.360;2023-02-25T02:38:16;99379.66;;;8.69;68.05
74542;BME280;63015;45.378;20.360;2023-02-25T02:42:37;99368.47;;;8.62;68.45
74542;BME280;63015;45.378;20.360;2023-02-25T02:45:09;99363.25;;;8.64;68.16
74542;BME280;63015;45.378;20.360;2023-02-25T02:47:16;99365.91;;;8.61;68.57
74542;BME280;63015;45.378;20.360;2023-02-25T02:52:09;99365.03;;;8.62;68.47
74542;BME280;63015;45.378;20.360;2023-02-25T02:54:15;99359.75;;;8.66;68.37
74542;BME280;63015;45.378;20.360;2023-02-25T02:56:19;99360.63;;;8.68;68.42
74542;BME280;63015;45.378;20.360;2023-02-25T02:58:27;99352.75;;;8.76;68.04
74542;BME280;63015;45.378;20.360;2023-02-25T03:00:41;99351.78;;;8.83;67.97
74542;BME280;63015;45.378;20.360;2023-02-25T03:02:49;99352.66;;;8.85;67.75
74542;BME280;63015;45.378;20.360;2023-02-25T03:04:59;99347.47;;;8.84;67.97
74542;BME280;63015;45.378;20.360;2023-02-25T03:07:04;99341.41;;;8.85;67.92
74542;BME280;63015;45.378;20.360;2023-02-25T03:09:29;99337.94;;;8.83;68.04
74542;BME280;63015;45.378;20.360;2023-02-25T03:11:30;99341.41;;;8.82;68.19
74542;BME280;63015;45.378;20.360;2023-02-25T03:13:30;99340.53;;;8.84;67.98
74542;BME280;63015;45.378;20.360;2023-02-25T03:15:33;99342.28;;;8.84;68.29
74542;BME280;63015;45.378;20.360;2023-02-25T03:17:53;99335.41;;;8.80;68.60
74542;BME280;63015;45.378;20.360;2023-02-25T03:22:13;99331.00;;;8.83;68.26
74542;BME280;63015;45.378;20.360;2023-02-25T03:24:18;99326.72;;;8.82;68.46
74542;BME280;63015;45.378;20.360;2023-02-25T03:26:27;99328.44;;;8.82;68.60
74542;BME280;63015;45.378;20.360;2023-02-25T03:28:34;99315.44;;;8.82;68.42
74542;BME280;63015;45.378;20.360;2023-02-25T03:31:12;99326.66;;;8.85;68.42
74542;BME280;63015;45.378;20.360;2023-02-25T03:35:31;99314.34;;;9.01;67.89
74542;BME280;63015;45.378;20.360;2023-02-25T03:37:36;99316.00;;;9.09;67.41
74542;BME280;63015;45.378;20.360;2023-02-25T03:39:42;99307.28;;;9.11;67.62
74542;BME280;63015;45.378;20.360;2023-02-25T03:41:50;99302.06;;;9.13;67.37
74542;BME280;63015;45.378;20.360;2023-02-25T03:43:54;99307.25;;;9.16;67.52
74542;BME280;63015;45.378;20.360;2023-02-25T03:45:56;99300.31;;;9.16;67.43
74542;BME280;63015;45.378;20.360;2023-02-25T03:47:57;99307.22;;;9.17;67.36
74542;BME280;63015;45.378;20.360;2023-02-25T03:52:12;99296.06;;;9.11;67.52
74542;BME280;63015;45.378;20.360;2023-02-25T03:54:15;99287.47;;;9.05;67.57
74542;BME280;63015;45.378;20.360;2023-02-25T03:56:18;99286.56;;;9.05;67.45
74542;BME280;63015;45.378;20.360;2023-02-25T03:58:19;99290.06;;;9.05;67.51
74542;BME280;63015;45.378;20.360;2023-02-25T04:00:25;99277.91;;;9.06;67.43
74542;BME280;63015;45.378;20.360;2023-02-25T04:02:31;99273.56;;;9.08;67.36
74542;BME280;63015;45.378;20.360;2023-02-25T04:04:32;99264.97;;;9.03;67.68
74542;BME280;63015;45.378;20.360;2023-02-25T04:06:33;99257.97;;;9.08;67.60
74542;BME280;63015;45.378;20.360;2023-02-25T04:08:33;99265.75;;;9.10;67.66
74542;BME280;63015;45.378;20.360;2023-02-25T04:10:34;99272.66;;;9.11;67.43
74542;BME280;63015;45.378;20.360;2023-02-25T04:12:35;99257.88;;;9.13;67.35
74542;BME280;63015;45.378;20.360;2023-02-25T04:14:35;99248.38;;;9.13;67.49
74542;BME280;63015;45.378;20.360;2023-02-25T04:16:36;99247.50;;;9.13;67.57
74542;BME280;63015;45.378;20.360;2023-02-25T04:18:37;99247.50;;;9.13;67.56
74542;BME280;63015;45.378;20.360;2023-02-25T04:20:40;99242.28;;;9.13;67.49
74542;BME280;63015;45.378;20.360;2023-02-25T04:22:41;99235.28;;;9.18;67.39
74542;BME280;63015;45.378;20.360;2023-02-25T04:24:42;99236.97;;;9.22;67.43
74542;BME280;63015;45.378;20.360;2023-02-25T04:26:42;99233.53;;;9.20;67.41
74542;BME280;63015;45.378;20.360;2023-02-25T04:28:43;99234.41;;;9.19;67.61
74542;BME280;63015;45.378;20.360;2023-02-25T04:30:43;99230.94;;;9.20;67.57
74542;BME280;63015;45.378;20.360;2023-02-25T04:32:44;99238.75;;;9.20;67.71
74542;BME280;63015;45.378;20.360;2023-02-25T04:34:44;99241.38;;;9.18;67.49
74542;BME280;63015;45.378;20.360;2023-02-25T04:36:46;99229.09;;;9.27;67.42
74542;BME280;63015;45.378;20.360;2023-02-25T04:38:46;99235.13;;;9.30;67.06
74542;BME280;63015;45.378;20.360;2023-02-25T04:40:50;99230.69;;;9.37;67.04
74542;BME280;63015;45.378;20.360;2023-02-25T04:42:50;99224.63;;;9.35;66.98
74542;BME280;63015;45.378;20.360;2023-02-25T04:44:51;99222.84;;;9.38;66.94
74542;BME280;63015;45.378;20.360;2023-02-25T04:46:51;99224.53;;;9.44;66.70
74542;BME280;63015;45.378;20.360;2023-02-25T04:48:52;99216.72;;;9.44;66.87
74542;BME280;63015;45.378;20.360;2023-02-25T04:50:52;99225.31;;;9.48;66.61
74542;BME280;63015;45.378;20.360;2023-02-25T04:52:53;99227.91;;;9.49;66.41
74542;BME280;63015;45.378;20.360;2023-02-25T04:54:53;99221.72;;;9.57;66.54
74542;BME280;63015;45.378;20.360;2023-02-25T04:56:54;99220.81;;;9.59;66.40
74542;BME280;63015;45.378;20.360;2023-02-25T04:58:56;99231.09;;;9.67;66.22
74542;BME280;63015;45.378;20.360;2023-02-25T05:00:58;99221.50;;;9.70;66.02
74542;BME280;63015;45.378;20.360;2023-02-25T05:02:59;99218.81;;;9.74;65.91
74542;BME280;63015;45.378;20.360;2023-02-25T05:04:59;99219.72;;;9.74;66.04
74542;BME280;63015;45.378;20.360;2023-02-25T05:07:00;99218.69;;;9.81;65.67
74542;BME280;63015;45.378;20.360;2023-02-25T05:09:01;99223.00;;;9.85;65.73
74542;BME280;63015;45.378;20.360;2023-02-25T05:11:02;99221.97;;;9.93;65.57
74542;BME280;63015;45.378;20.360;2023-02-25T05:13:04;99211.47;;;9.99;65.22
74542;BME280;63015;45.378;20.360;2023-02-25T05:15:05;99210.47;;;10.06;64.91
74542;BME280;63015;45.378;20.360;2023-02-25T05:17:07;99218.22;;;10.09;64.99
74542;BME280;63015;45.378;20.360;2023-02-25T05:19:08;99210.34;;;10.12;64.78
74542;BME280;63015;45.378;20.360;2023-02-25T05:21:10;99213.75;;;10.16;64.64
74542;BME280;63015;45.378;20.360;2023-02-25T05:23:12;99205.06;;;10.17;64.68
74542;BME280;63015;45.378;20.360;2023-02-25T05:25:12;99209.28;;;10.24;64.49
74542;BME280;63015;45.378;20.360;2023-02-25T05:27:14;99202.31;;;10.25;64.42
74542;BME280;63015;45.378;20.360;2023-02-25T05:29:14;99197.94;;;10.27;64.49
74542;BME280;63015;45.378;20.360;2023-02-25T05:31:16;99199.63;;;10.28;64.72
74542;BME280;63015;45.378;20.360;2023-02-25T05:33:17;99200.53;;;10.28;64.77
74542;BME280;63015;45.378;20.360;2023-02-25T05:35:18;99201.31;;;10.32;64.86
74542;BME280;63015;45.378;20.360;2023-02-25T05:37:19;99196.13;;;10.32;64.96
74542;BME280;63015;45.378;20.360;2023-02-25T05:39:19;99190.91;;;10.32;65.14
74542;BME280;63015;45.378;20.360;2023-02-25T05:41:20;99190.03;;;10.31;65.45
74542;BME280;63015;45.378;20.360;2023-02-25T05:43:21;99187.38;;;10.33;65.32
74542;BME280;63015;45.378;20.360;2023-02-25T05:45:21;99188.09;;;10.43;65.48
74542;BME280;63015;45.378;20.360;2023-02-25T05:47:22;99185.34;;;10.50;65.22
74542;BME280;63015;45.378;20.360;2023-02-25T05:49:22;99189.47;;;10.61;64.82
74542;BME280;63015;45.378;20.360;2023-02-25T05:51:23;99185.91;;;10.66;64.91
74542;BME280;63015;45.378;20.360;2023-02-25T05:53:23;99182.25;;;10.74;64.61
74542;BME280;63015;45.378;20.360;2023-02-25T05:55:24;99191.75;;;10.76;64.69
74542;BME280;63015;45.378;20.360;2023-02-25T05:57:26;99182.19;;;10.78;64.69
74542;BME280;63015;45.378;20.360;2023-02-25T05:59:26;99182.19;;;10.78;64.89
74542;BME280;63015;45.378;20.360;2023-02-25T06:01:27;99176.88;;;10.81;64.83
74542;BME280;63015;45.378;20.360;2023-02-25T06:03:28;99175.91;;;10.85;64.94
74542;BME280;63015;45.378;20.360;2023-02-25T06:05:29;99178.53;;;10.87;64.78
74542;BME280;63015;45.378;20.360;2023-02-25T06:07:30;99179.28;;;10.91;65.00
74542;BME280;63015;45.378;20.360;2023-02-25T06:09:32;99176.72;;;10.89;65.04
74542;BME280;63015;45.378;20.360;2023-02-25T06:11:34;99182.75;;;10.91;65.01
74542;BME280;63015;45.378;20.360;2023-02-25T06:13:35;99182.66;;;10.96;64.99
74542;BME280;63015;45.378;20.360;2023-02-25T06:15:37;99184.28;;;11.01;65.00
74542;BME280;63015;45.378;20.360;2023-02-25T06:17:38;99181.63;;;11.03;65.01
74542;BME280;63015;45.378;20.360;2023-02-25T06:19:39;99178.84;;;11.11;64.64
74542;BME280;63015;45.378;20.360;2023-02-25T06:21:39;99180.56;;;11.12;64.70
74542;BME280;63015;45.378;20.360;2023-02-25T06:23:41;99189.06;;;11.20;64.84
74542;BME280;63015;45.378;20.360;2023-02-25T06:25:42;99189.81;;;11.25;64.55
74542;BME280;63015;45.378;20.360;2023-02-25T06:27:43;99196.00;;;11.21;64.74
74542;BME280;63015;45.378;20.360;2023-02-25T06:29:46;99201.03;;;11.29;64.79
74542;BME280;63015;45.378;20.360;2023-02-25T06:31:47;99201.97;;;11.26;64.97
74542;BME280;63015;45.378;20.360;2023-02-25T06:33:48;99201.03;;;11.29;65.02
74542;BME280;63015;45.378;20.360;2023-02-25T06:35:51;99211.50;;;11.27;65.25
74542;BME280;63015;45.378;20.360;2023-02-25T06:37:56;99216.84;;;11.21;65.77
74542;BME280;63015;45.378;20.360;2023-02-25T06:39:57;99221.19;;;11.22;66.30
74542;BME280;63015;45.378;20.360;2023-02-25T06:41:58;99227.31;;;11.19;66.89
74542;BME280;63015;45.378;20.360;2023-02-25T06:43:58;99227.28;;;11.21;66.92
74542;BME280;63015;45.378;20.360;2023-02-25T06:46:03;99239.78;;;11.07;68.02
74542;BME280;63015;45.378;20.360;2023-02-25T06:48:04;99248.66;;;10.98;69.05
74542;BME280;63015;45.378;20.360;2023-02-25T06:50:06;99242.56;;;10.99;69.24
74542;BME280;63015;45.378;20.360;2023-02-25T06:52:07;99250.38;;;10.99;69.53
74542;BME280;63015;45.378;20.360;2023-02-25T06:54:07;99260.06;;;10.92;70.10
74542;BME280;63015;45.378;20.360;2023-02-25T06:56:10;99262.69;;;10.92;70.29
74542;BME280;63015;45.378;20.360;2023-02-25T06:58:11;99266.06;;;10.97;69.98
74542;BME280;63015;45.378;20.360;2023-02-25T07:00:12;99265.44;;;10.84;71.36
74542;BME280;63015;45.378;20.360;2023-02-25T07:02:13;99268.06;;;10.83;71.14
74542;BME280;63015;45.378;20.360;2023-02-25T07:04:15;99266.38;;;10.80;71.11
74542;BME280;63015;45.378;20.360;2023-02-25T07:06:17;99266.44;;;10.77;71.71
74542;BME280;63015;45.378;20.360;2023-02-25T07:08:17;99268.16;;;10.78;71.87
74542;BME280;63015;45.378;20.360;2023-02-25T07:10:18;99265.59;;;10.77;71.67
74542;BME280;63015;45.378;20.360;2023-02-25T07:12:19;99265.81;;;10.66;72.79
74542;BME280;63015;45.378;20.360;2023-02-25T07:14:19;99264.91;;;10.67;72.59
74542;BME280;63015;45.378;20.360;2023-02-25T07:16:20;99265.09;;;10.58;73.50
74542;BME280;63015;45.378;20.360;2023-02-25T07:18:20;99267.84;;;10.50;73.76
74542;BME280;63015;45.378;20.360;2023-02-25T07:20:21;99267.78;;;10.53;73.59
74542;BME280;63015;45.378;20.360;2023-02-25T07:22:21;99272.16;;;10.52;73.78
74542;BME280;63015;45.378;20.360;2023-02-25T07:24:22;99274.91;;;10.43;75.01
74542;BME280;63015;45.378;20.360;2023-02-25T07:26:23;99273.16;;;10.44;74.73
74542;BME280;63015;45.378;20.360;2023-02-25T07:28:27;99277.53;;;10.42;75.43
74542;BME280;63015;45.378;20.360;2023-02-25T07:30:27;99265.41;;;10.42;74.89
74542;BME280;63015;45.378;20.360;2023-02-25T07:32:28;99274.06;;;10.43;75.04
74542;BME280;63015;45.378;20.360;2023-02-25T07:34:28;99254.97;;;10.42;74.87
74542;BME280;63015;45.378;20.360;2023-02-25T07:36:33;99270.59;;;10.41;75.43
74542;BME280;63015;45.378;20.360;2023-02-25T07:38:36;99280.25;;;10.35;76.08
74542;BME280;63015;45.378;20.360;2023-02-25T07:40:38;99281.06;;;10.39;75.84
74542;BME280;63015;45.378;20.360;2023-02-25T07:42:40;99263.69;;;10.41;75.94
74542;BME280;63015;45.378;20.360;2023-02-25T07:44:41;99273.13;;;10.45;75.64
74542;BME280;63015;45.378;20.360;2023-02-25T07:46:41;99273.00;;;10.53;74.97
74542;BME280;63015;45.378;20.360;2023-02-25T07:48:42;99262.56;;;10.53;75.25
74542;BME280;63015;45.378;20.360;2023-02-25T07:50:42;99264.22;;;10.59;75.42
74542;BME280;63015;45.378;20.360;2023-02-25T07:52:44;99252.19;;;10.51;75.66
74542;BME280;63015;45.378;20.360;2023-02-25T07:54:44;99267.84;;;10.50;75.83
74542;BME280;63015;45.378;20.360;2023-02-25T07:56:45;99268.78;;;10.47;76.11
74542;BME280;63015;45.378;20.360;2023-02-25T07:58:46;99276.50;;;10.50;75.87
74542;BME280;63015;45.378;20.360;2023-02-25T08:00:46;99272.28;;;10.45;76.18
74542;BME280;63015;45.378;20.360;2023-02-25T08:02:47;99286.97;;;10.49;75.92
74542;BME280;63015;45.378;20.360;2023-02-25T08:04:48;99297.47;;;10.44;76.47
74542;BME280;63015;45.378;20.360;2023-02-25T08:06:49;99288.72;;;10.47;76.15
74542;BME280;63015;45.378;20.360;2023-02-25T08:08:50;99290.59;;;10.40;77.00
74542;BME280;63015;45.378;20.360;2023-02-25T08:10:51;99289.75;;;10.38;76.93
74542;BME280;63015;45.378;20.360;2023-02-25T08:12:52;99282.84;;;10.37;77.12
74542;BME280;63015;45.378;20.360;2023-02-25T08:14:52;99278.50;;;10.38;77.34
74542;BME280;63015;45.378;20.360;2023-02-25T08:16:55;99288.03;;;10.39;77.40
74542;BME280;63015;45.378;20.360;2023-02-25T08:18:56;99289.66;;;10.44;76.93
74542;BME280;63015;45.378;20.360;2023-02-25T08:20:56;99280.22;;;10.39;77.50
74542;BME280;63015;45.378;20.360;2023-02-25T08:22:57;99284.47;;;10.43;77.28
74542;BME280;63015;45.378;20.360;2023-02-25T08:24:58;99287.03;;;10.44;77.25
74542;BME280;63015;45.378;20.360;2023-02-25T08:26:58;99285.38;;;10.40;77.71
74542;BME280;63015;45.378;20.360;2023-02-25T08:28:59;99286.16;;;10.45;77.47
74542;BME280;63015;45.378;20.360;2023-02-25T08:30:59;99273.13;;;10.45;77.86
74542;BME280;63015;45.378;20.360;2023-02-25T08:33:00;99287.88;;;10.46;77.86
74542;BME280;63015;45.378;20.360;2023-02-25T08:35:02;99294.78;;;10.49;78.15
74542;BME280;63015;45.378;20.360;2023-02-25T08:37:03;99283.41;;;10.53;77.77
74542;BME280;63015;45.378;20.360;2023-02-25T08:39:03;99281.00;;;10.44;78.24
74542;BME280;63015;45.378;20.360;2023-02-25T08:41:05;99290.38;;;10.51;77.98
74542;BME280;63015;45.378;20.360;2023-02-25T08:43:06;99293.78;;;10.55;77.73
74542;BME280;63015;45.378;20.360;2023-02-25T08:45:07;99292.03;;;10.57;77.98
74542;BME280;63015;45.378;20.360;2023-02-25T08:47:08;99304.97;;;10.61;77.20
74542;BME280;63015;45.378;20.360;2023-02-25T08:49:08;99297.97;;;10.63;77.16
74542;BME280;63015;45.378;20.360;2023-02-25T08:51:09;99277.88;;;10.70;77.05
74542;BME280;63015;45.378;20.360;2023-02-25T08:53:10;99263.06;;;10.72;76.80
74542;BME280;63015;45.378;20.360;2023-02-25T08:55:11;99259.59;;;10.73;76.83
74542;BME280;63015;45.378;20.360;2023-02-25T08:57:15;99265.69;;;10.72;76.84
74542;BME280;63015;45.378;20.360;2023-02-25T08:59:15;99269.06;;;10.77;76.25
74542;BME280;63015;45.378;20.360;2023-02-25T09:01:16;99264.53;;;10.87;76.28
74542;BME280;63015;45.378;20.360;2023-02-25T09:03:17;99252.31;;;10.89;76.47
74542;BME280;63015;45.378;20.360;2023-02-25T09:05:17;99241.84;;;10.91;76.09
74542;BME280;63015;45.378;20.360;2023-02-25T09:07:18;99230.38;;;10.99;75.87
74542;BME280;63015;45.378;20.360;2023-02-25T09:09:20;99225.09;;;11.02;75.89
74542;BME280;63015;45.378;20.360;2023-02-25T09:11:21;99227.69;;;11.02;75.69
74542;BME280;63015;45.378;20.360;2023-02-25T09:13:22;99229.47;;;11.00;75.36
74542;BME280;63015;45.378;20.360;2023-02-25T09:15:22;99232.75;;;11.09;75.35
74542;BME280;63015;45.378;20.360;2023-02-25T09:17:23;99225.06;;;11.04;75.29
74542;BME280;63015;45.378;20.360;2023-02-25T09:19:23;99224.97;;;11.07;75.26
74542;BME280;63015;45.378;20.360;2023-02-25T09:21:24;99228.38;;;11.11;75.30
74542;BME280;63015;45.378;20.360;2023-02-25T09:23:24;99231.94;;;11.07;75.93
74542;BME280;63015;45.378;20.360;2023-02-25T09:25:25;99229.88;;;11.21;75.43
74542;BME280;63015;45.378;20.360;2023-02-25T09:27:26;99236.69;;;11.27;75.42
74542;BME280;63015;45.378;20.360;2023-02-25T09:29:26;99236.69;;;11.27;75.34
74542;BME280;63015;45.378;20.360;2023-02-25T09:31:27;99239.25;;;11.30;75.18
74542;BME280;63015;45.378;20.360;2023-02-25T09:33:29;99239.34;;;11.25;75.29
74542;BME280;63015;45.378;20.360;2023-02-25T09:35:30;99254.19;;;11.22;75.49
74542;BME280;63015;45.378;20.360;2023-02-25T09:37:30;99261.97;;;11.25;75.58
74542;BME280;63015;45.378;20.360;2023-02-25T09:39:31;99262.94;;;11.19;76.18
74542;BME280;63015;45.378;20.360;2023-02-25T09:41:43;99282.88;;;11.22;76.37
74542;BME280;63015;45.378;20.360;2023-02-25T09:43:48;99289.16;;;11.14;76.09
74542;BME280;63015;45.378;20.360;2023-02-25T09:46:03;99291.56;;;11.24;75.55
74542;BME280;63015;45.378;20.360;2023-02-25T09:48:27;99306.69;;;11.08;76.37
74542;BME280;63015;45.378;20.360;2023-02-25T09:50:43;99294.72;;;10.97;76.57
74542;BME280;63015;45.378;20.360;2023-02-25T09:52:57;99286.06;;;10.95;77.01
74542;BME280;63015;45.378;20.360;2023-02-25T09:57:17;99282.47;;;11.01;76.87
74542;BME280;63015;45.378;20.360;2023-02-25T09:59:18;99266.81;;;11.02;76.78
74542;BME280;63015;45.378;20.360;2023-02-25T10:01:30;99261.59;;;11.02;76.84
74542;BME280;63015;45.378;20.360;2023-02-25T10:06:23;99223.41;;;10.98;77.55
74542;BME280;63015;45.378;20.360;2023-02-25T10:09:00;99218.72;;;11.16;77.42
74542;BME280;63015;45.378;20.360;2023-02-25T10:11:07;99223.66;;;11.28;77.02
74542;BME280;63015;45.378;20.360;2023-02-25T10:13:19;99229.72;;;11.29;77.56
74542;BME280;63015;45.378;20.360;2023-02-25T10:15:31;99248.06;;;11.24;77.96
74542;BME280;63015;45.378;20.360;2023-02-25T10:21:10;99273.22;;;11.27;77.79
74542;BME280;63015;45.378;20.360;2023-02-25T10:22:53;99271.63;;;11.21;77.86
74542;BME280;63015;45.378;20.360;2023-02-25T10:24:59;99279.63;;;11.12;77.27
74542;BME280;63015;45.378;20.360;2023-02-25T10:29:50;99299.72;;;10.13;77.14
74542;BME280;63015;45.378;20.360;2023-02-25T10:31:54;99300.00;;;9.97;78.16
74542;BME280;63015;45.378;20.360;2023-02-25T10:34:22;99318.41;;;9.83;76.86
74542;BME280;63015;45.378;20.360;2023-02-25T10:36:27;99306.34;;;9.18;76.83
74542;BME280;63015;45.378;20.360;2023-02-25T10:38:29;99318.06;;;8.80;76.01
74542;BME280;63015;45.378;20.360;2023-02-25T10:40:30;99330.50;;;8.50;77.03
74542;BME280;63015;45.378;20.360;2023-02-25T10:42:30;99332.25;;;8.45;77.06
74542;BME280;63015;45.378;20.360;2023-02-25T10:44:31;99326.34;;;8.28;77.35
74542;BME280;63015;45.378;20.360;2023-02-25T10:46:32;99336.53;;;8.52;77.57
74542;BME280;63015;45.378;20.360;2023-02-25T10:48:35;99344.41;;;8.46;77.39
74542;BME280;63015;45.378;20.360;2023-02-25T10:50:37;99343.75;;;8.18;78.57
74542;BME280;63015;45.378;20.360;2023-02-25T10:53:15;99339.34;;;8.26;78.16
74542;BME280;63015;45.378;20.360;2023-02-25T10:55:48;99354.06;;;8.26;79.06
74542;BME280;63015;45.378;20.360;2023-02-25T10:57:51;99358.38;;;8.25;79.56
74542;BME280;63015;45.378;20.360;2023-02-25T11:00:07;99363.41;;;8.48;78.82
74542;BME280;63015;45.378;20.360;2023-02-25T11:02:24;99367.88;;;8.31;78.72
74542;BME280;63015;45.378;20.360;2023-02-25T11:04:32;99369.72;;;8.18;79.29
74542;BME280;63015;45.378;20.360;2023-02-25T11:06:36;99372.34;;;8.09;79.74
74542;BME280;63015;45.378;20.360;2023-02-25T11:08:37;99379.38;;;7.94;80.63
74542;BME280;63015;45.378;20.360;2023-02-25T11:10:37;99389.75;;;7.96;80.77
74542;BME280;63015;45.378;20.360;2023-02-25T11:13:00;99396.66;;;8.00;80.60
74542;BME280;63015;45.378;20.360;2023-02-25T11:15:37;99417.47;;;7.89;79.61
74542;BME280;63015;45.378;20.360;2023-02-25T11:17:43;99404.66;;;7.60;78.88
74542;BME280;63015;45.378;20.360;2023-02-25T11:19:51;99408.22;;;7.37;78.29
74542;BME280;63015;45.378;20.360;2023-02-25T11:21:52;99415.13;;;7.35;79.44
74542;BME280;63015;45.378;20.360;2023-02-25T11:23:53;99408.28;;;7.18;79.63
74542;BME280;63015;45.378;20.360;2023-02-25T11:25:58;99413.44;;;7.24;80.18
74542;BME280;63015;45.378;20.360;2023-02-25T11:27:59;99402.19;;;7.29;79.98
74542;BME280;63015;45.378;20.360;2023-02-25T11:32:16;99403.16;;;7.07;79.70